createdAt,value
2023-04-22T00:00:13.864Z,11.39
2023-04-22T00:01:13.846Z,11.35
2023-04-22T00:02:13.895Z,11.42
2023-04-22T00:03:14.148Z,11.35
2023-04-22T00:04:14.288Z,11.35
2023-04-22T00:05:16.463Z,11.44
2023-04-22T00:06:13.774Z,11.40
2023-04-22T00:07:13.792Z,11.39
2023-04-22T00:08:13.757Z,11.40
2023-04-22T00:09:13.749Z,11.40
2023-04-22T00:10:13.781Z,11.46
2023-04-22T00:11:13.735Z,11.40
2023-04-22T00:12:13.713Z,11.49
2023-04-22T00:13:13.704Z,11.40
2023-04-22T00:14:13.690Z,11.43
2023-04-22T00:15:13.679Z,11.44
2023-04-22T00:16:13.773Z,11.39
2023-04-22T00:17:13.664Z,11.40
2023-04-22T00:18:13.756Z,11.42
2023-04-22T00:19:13.639Z,11.39
2023-04-22T00:20:13.651Z,11.42
2023-04-22T00:21:13.618Z,11.40
2023-04-22T00:22:13.705Z,11.44
2023-04-22T00:23:13.609Z,11.42
2023-04-22T00:24:13.580Z,11.46
2023-04-22T00:25:13.595Z,11.46
2023-04-22T00:26:13.558Z,11.49
2023-04-22T00:27:13.556Z,11.44
2023-04-22T00:28:13.569Z,11.49
2023-04-22T00:29:13.529Z,11.51
2023-04-22T00:30:13.548Z,11.43
2023-04-22T00:31:13.554Z,11.52
2023-04-22T00:32:13.528Z,11.47
2023-04-22T00:33:13.526Z,11.51
2023-04-22T00:34:13.502Z,11.43
2023-04-22T00:35:13.477Z,11.55
2023-04-22T00:36:13.540Z,11.54
2023-04-22T00:37:13.454Z,11.55
2023-04-22T00:38:13.437Z,11.46
2023-04-22T00:39:13.408Z,11.57
2023-04-22T00:40:13.419Z,11.52
2023-04-22T00:41:13.414Z,11.61
2023-04-22T00:42:13.425Z,11.57
2023-04-22T00:43:13.387Z,11.47
2023-04-22T00:44:13.369Z,11.64
2023-04-22T00:45:13.347Z,11.62
2023-04-22T00:46:13.385Z,11.67
2023-04-22T00:47:13.380Z,11.58
2023-04-22T00:48:13.382Z,11.62
2023-04-22T00:49:13.299Z,11.65
2023-04-22T00:50:13.285Z,11.64
2023-04-22T00:51:13.345Z,11.61
2023-04-22T00:52:13.311Z,11.69
2023-04-22T00:53:13.278Z,11.55
2023-04-22T00:54:13.268Z,11.72
2023-04-22T00:55:13.250Z,11.62
2023-04-22T00:56:13.244Z,11.60
2023-04-22T00:57:13.218Z,11.65
2023-04-22T00:58:13.200Z,11.69
2023-04-22T00:59:13.259Z,11.67
2023-04-22T01:00:13.203Z,11.60
2023-04-22T01:01:13.221Z,11.57
2023-04-22T01:02:13.232Z,11.67
2023-04-22T01:03:13.318Z,11.58
2023-04-22T01:04:13.285Z,11.64
2023-04-22T01:05:13.148Z,11.65
2023-04-22T01:06:13.144Z,11.64
2023-04-22T01:07:13.112Z,11.72
2023-04-22T01:08:13.149Z,11.69
2023-04-22T01:09:13.108Z,11.65
2023-04-22T01:10:13.070Z,11.62
2023-04-22T01:11:13.090Z,11.58
2023-04-22T01:12:13.049Z,11.72
2023-04-22T01:13:13.041Z,11.75
2023-04-22T01:14:13.088Z,11.76
2023-04-22T01:15:13.047Z,11.67
2023-04-22T01:16:13.056Z,11.72
2023-04-22T01:17:12.992Z,11.70
2023-04-22T01:18:12.991Z,11.64
2023-04-22T01:19:13.001Z,11.67
2023-04-22T01:20:12.971Z,11.65
2023-04-22T01:21:12.984Z,11.73
2023-04-22T01:22:12.976Z,11.73
2023-04-22T01:23:12.934Z,11.76
2023-04-22T01:24:12.954Z,11.73
2023-04-22T01:25:12.918Z,11.75
2023-04-22T01:26:12.902Z,11.78
2023-04-22T01:27:12.924Z,11.78
2023-04-22T01:28:12.878Z,11.65
2023-04-22T01:29:12.877Z,11.76
2023-04-22T01:30:12.884Z,11.76
2023-04-22T01:31:12.878Z,11.73
2023-04-22T01:32:12.881Z,11.83
2023-04-22T01:33:12.883Z,11.85
2023-04-22T01:34:12.886Z,11.86
2023-04-22T01:35:12.799Z,11.86
2023-04-22T01:36:13.303Z,11.80
2023-04-22T01:37:12.781Z,11.76
2023-04-22T01:38:12.796Z,11.83
2023-04-22T01:39:12.764Z,11.79
2023-04-22T01:40:12.793Z,11.78
2023-04-22T01:41:12.739Z,11.88
2023-04-22T01:42:12.719Z,11.88
2023-04-22T01:43:12.739Z,11.75
2023-04-22T01:44:12.704Z,11.86
2023-04-22T01:45:12.707Z,11.82
2023-04-22T01:46:12.746Z,11.83
2023-04-22T01:47:12.663Z,11.85
2023-04-22T01:48:12.728Z,11.88
2023-04-22T01:49:12.650Z,11.91
2023-04-22T01:50:12.642Z,11.91
2023-04-22T01:51:12.623Z,11.98
2023-04-22T01:52:12.688Z,11.91
2023-04-22T01:53:12.627Z,11.83
2023-04-22T01:54:12.648Z,11.94
2023-04-22T01:55:12.582Z,11.95
2023-04-22T01:56:12.596Z,11.98
2023-04-22T01:57:12.555Z,11.95
2023-04-22T01:58:12.563Z,11.96
2023-04-22T01:59:12.539Z,11.88
2023-04-22T02:00:12.548Z,11.95
2023-04-22T02:01:12.527Z,11.98
2023-04-22T02:02:12.595Z,11.94
2023-04-22T02:03:12.611Z,12.09
2023-04-22T02:04:12.486Z,11.98
2023-04-22T02:05:12.532Z,11.99
2023-04-22T02:06:12.502Z,11.94
2023-04-22T02:07:12.456Z,11.96
2023-04-22T02:08:12.441Z,11.99
2023-04-22T02:09:12.425Z,11.95
2023-04-22T02:10:12.443Z,11.99
2023-04-22T02:11:12.403Z,11.95
2023-04-22T02:12:12.430Z,12.02
2023-04-22T02:13:12.402Z,11.99
2023-04-22T02:14:12.373Z,11.99
2023-04-22T02:15:12.356Z,12.10
2023-04-22T02:16:12.420Z,11.95
2023-04-22T02:17:12.334Z,11.96
2023-04-22T02:18:12.369Z,12.02
2023-04-22T02:19:12.321Z,11.99
2023-04-22T02:20:12.377Z,12.10
2023-04-22T02:21:12.292Z,12.01
2023-04-22T02:22:12.288Z,12.09
2023-04-22T02:23:12.286Z,11.98
2023-04-22T02:24:12.264Z,11.99
2023-04-22T02:25:12.302Z,12.01
2023-04-22T02:26:12.243Z,11.99
2023-04-22T02:27:12.230Z,12.05
2023-04-22T02:28:12.251Z,12.01
2023-04-22T02:29:12.210Z,11.95
2023-04-22T02:30:12.217Z,12.07
2023-04-22T02:31:12.228Z,11.95
2023-04-22T02:32:12.184Z,11.99
2023-04-22T02:33:12.186Z,12.09
2023-04-22T02:34:12.172Z,12.01
2023-04-22T02:35:12.156Z,11.98
2023-04-22T02:36:12.151Z,11.98
2023-04-22T02:37:12.130Z,12.01
2023-04-22T02:38:12.135Z,12.07
2023-04-22T02:39:12.121Z,11.95
2023-04-22T02:40:12.150Z,12.10
2023-04-22T02:41:12.095Z,12.02
2023-04-22T02:42:12.067Z,12.01
2023-04-22T02:43:12.072Z,11.99
2023-04-22T02:44:12.056Z,11.99
2023-04-22T02:45:12.090Z,11.99
2023-04-22T02:46:12.093Z,12.01
2023-04-22T02:47:12.009Z,11.96
2023-04-22T02:48:12.098Z,12.12
2023-04-22T02:49:12.015Z,12.01
2023-04-22T02:50:11.993Z,11.95
2023-04-22T02:51:11.993Z,12.07
2023-04-22T02:52:11.963Z,11.99
2023-04-22T02:53:11.957Z,11.95
2023-04-22T02:54:11.950Z,12.07
2023-04-22T02:55:11.921Z,12.09
2023-04-22T02:56:11.922Z,12.02
2023-04-22T02:57:11.906Z,12.04
2023-04-22T02:58:11.929Z,12.12
2023-04-22T02:59:11.914Z,12.04
2023-04-22T03:00:11.884Z,12.04
2023-04-22T03:01:11.931Z,12.10
2023-04-22T03:02:11.954Z,12.10
2023-04-22T03:03:11.940Z,12.02
2023-04-22T03:04:11.930Z,12.09
2023-04-22T03:05:11.877Z,12.07
2023-04-22T03:06:11.804Z,12.10
2023-04-22T03:07:11.833Z,11.99
2023-04-22T03:08:11.777Z,11.99
2023-04-22T03:09:11.789Z,12.01
2023-04-22T03:10:11.793Z,12.04
2023-04-22T03:11:11.737Z,12.07
2023-04-22T03:12:11.724Z,12.02
2023-04-22T03:13:11.739Z,12.10
2023-04-22T03:14:11.711Z,12.12
2023-04-22T03:15:11.701Z,12.04
2023-04-22T03:16:11.772Z,12.02
2023-04-22T03:17:11.685Z,12.01
2023-04-22T03:18:11.664Z,12.10
2023-04-22T03:19:11.701Z,12.10
2023-04-22T03:20:11.674Z,12.02
2023-04-22T03:21:11.645Z,12.05
2023-04-22T03:22:11.630Z,12.01
2023-04-22T03:23:11.627Z,12.10
2023-04-22T03:24:11.597Z,12.13
2023-04-22T03:25:11.605Z,12.09
2023-04-22T03:26:11.592Z,12.10
2023-04-22T03:27:11.568Z,12.02
2023-04-22T03:28:11.572Z,12.10
2023-04-22T03:29:11.548Z,12.07
2023-04-22T03:30:11.540Z,12.05
2023-04-22T03:31:11.558Z,12.09
2023-04-22T03:32:11.630Z,12.09
2023-04-22T03:33:11.593Z,12.04
2023-04-22T03:34:11.491Z,11.95
2023-04-22T03:35:19.089Z,11.99
2023-04-22T03:36:11.473Z,11.98
2023-04-22T03:37:11.503Z,11.96
2023-04-22T03:38:11.464Z,11.98
2023-04-22T03:39:11.432Z,11.99
2023-04-22T03:40:13.457Z,11.96
2023-04-22T03:41:11.464Z,11.98
2023-04-22T03:42:11.404Z,11.95
2023-04-22T03:43:11.403Z,11.98
2023-04-22T03:44:11.399Z,11.96
2023-04-22T03:45:11.408Z,11.99
2023-04-22T03:46:11.455Z,11.90
2023-04-22T03:47:11.352Z,11.94
2023-04-22T03:48:11.361Z,11.98
2023-04-22T03:49:11.348Z,11.96
2023-04-22T03:50:11.333Z,11.95
2023-04-22T03:51:11.308Z,11.85
2023-04-22T03:52:11.290Z,11.96
2023-04-22T03:53:11.286Z,11.95
2023-04-22T03:54:11.308Z,11.96
2023-04-22T03:55:11.289Z,11.99
2023-04-22T03:56:11.243Z,11.96
2023-04-22T03:57:11.240Z,11.91
2023-04-22T03:58:11.225Z,11.86
2023-04-22T03:59:11.225Z,11.94
2023-04-22T04:00:11.221Z,11.94
2023-04-22T04:01:11.224Z,11.94
2023-04-22T04:02:11.249Z,12.02
2023-04-22T04:03:11.449Z,11.98
2023-04-22T04:04:11.351Z,12.05
2023-04-22T04:05:11.361Z,11.96
2023-04-22T04:06:11.135Z,12.01
2023-04-22T04:07:11.142Z,11.99
2023-04-22T04:08:11.209Z,11.95
2023-04-22T04:09:11.123Z,12.01
2023-04-22T04:10:11.101Z,11.98
2023-04-22T04:11:11.103Z,11.98
2023-04-22T04:12:11.095Z,11.98
2023-04-22T04:13:11.087Z,11.96
2023-04-22T04:14:11.093Z,11.94
2023-04-22T04:15:11.049Z,12.02
2023-04-22T04:16:11.065Z,12.07
2023-04-22T04:17:11.021Z,11.96
2023-04-22T04:18:11.006Z,11.98
2023-04-22T04:19:11.021Z,11.99
2023-04-22T04:20:11.012Z,12.05
2023-04-22T04:21:10.986Z,11.99
2023-04-22T04:22:11.015Z,12.01
2023-04-22T04:23:10.956Z,12.02
2023-04-22T04:24:11.026Z,12.02
2023-04-22T04:25:10.947Z,12.14
2023-04-22T04:26:10.931Z,12.02
2023-04-22T04:27:10.938Z,12.10
2023-04-22T04:28:10.904Z,12.12
2023-04-22T04:29:10.911Z,12.12
2023-04-22T04:30:10.891Z,12.20
2023-04-22T04:31:10.929Z,12.20
2023-04-22T04:32:10.871Z,12.14
2023-04-22T04:33:10.921Z,12.14
2023-04-22T04:34:10.849Z,12.17
2023-04-22T04:35:10.844Z,12.19
2023-04-22T04:36:10.832Z,12.19
2023-04-22T04:37:10.820Z,12.17
2023-04-22T04:38:10.782Z,12.17
2023-04-22T04:39:10.800Z,12.19
2023-04-22T04:40:10.766Z,12.19
2023-04-22T04:41:10.817Z,12.10
2023-04-22T04:42:10.742Z,12.17
2023-04-22T04:43:10.759Z,12.16
2023-04-22T04:44:10.738Z,12.14
2023-04-22T04:45:10.762Z,12.16
2023-04-22T04:46:10.744Z,12.19
2023-04-22T04:47:10.704Z,12.23
2023-04-22T04:48:10.729Z,12.24
2023-04-22T04:49:10.707Z,12.17
2023-04-22T04:50:10.657Z,12.28
2023-04-22T04:51:10.646Z,12.20
2023-04-22T04:52:10.646Z,12.23
2023-04-22T04:53:10.645Z,12.27
2023-04-22T04:54:10.622Z,12.21
2023-04-22T04:55:10.641Z,12.31
2023-04-22T04:56:10.583Z,12.28
2023-04-22T04:57:10.574Z,12.24
2023-04-22T04:58:10.567Z,12.24
2023-04-22T04:59:10.570Z,12.29
2023-04-22T05:00:10.576Z,12.20
2023-04-22T05:01:10.575Z,12.28
2023-04-22T05:02:10.615Z,12.28
2023-04-22T05:03:10.670Z,12.27
2023-04-22T05:04:10.617Z,12.24
2023-04-22T05:05:10.490Z,12.21
2023-04-22T05:06:10.479Z,12.39
2023-04-22T05:07:10.485Z,12.41
2023-04-22T05:08:10.479Z,12.39
2023-04-22T05:09:10.466Z,12.37
2023-04-22T05:10:10.532Z,12.38
2023-04-22T05:11:10.425Z,12.38
2023-04-22T05:12:10.415Z,12.42
2023-04-22T05:13:10.402Z,12.41
2023-04-22T05:14:10.425Z,12.45
2023-04-22T05:15:10.396Z,12.47
2023-04-22T05:16:10.456Z,12.47
2023-04-22T05:17:10.381Z,12.45
2023-04-22T05:18:10.430Z,12.47
2023-04-22T05:19:10.345Z,12.53
2023-04-22T05:20:10.358Z,12.47
2023-04-22T05:21:10.339Z,12.53
2023-04-22T05:22:10.308Z,12.53
2023-04-22T05:23:10.298Z,12.64
2023-04-22T05:24:10.302Z,12.62
2023-04-22T05:25:10.286Z,12.67
2023-04-22T05:26:10.290Z,12.72
2023-04-22T05:27:10.255Z,12.71
2023-04-22T05:28:10.241Z,12.75
2023-04-22T05:29:10.254Z,12.77
2023-04-22T05:30:10.251Z,12.75
2023-04-22T05:31:10.231Z,12.79
2023-04-22T05:32:10.309Z,12.83
2023-04-22T05:33:10.231Z,12.82
2023-04-22T05:34:10.180Z,12.89
2023-04-22T05:35:10.200Z,12.87
2023-04-22T05:36:10.166Z,12.97
2023-04-22T05:37:10.148Z,13.01
2023-04-22T05:38:10.156Z,13.01
2023-04-22T05:39:10.142Z,13.10
2023-04-22T05:40:10.121Z,13.10
2023-04-22T05:41:10.109Z,13.07
2023-04-22T05:42:10.086Z,13.11
2023-04-22T05:43:10.097Z,13.14
2023-04-22T05:44:10.086Z,13.14
2023-04-22T05:45:10.068Z,13.23
2023-04-22T05:46:10.168Z,13.36
2023-04-22T05:47:10.072Z,13.25
2023-04-22T05:48:10.059Z,13.38
2023-04-22T05:49:10.025Z,13.39
2023-04-22T05:50:10.048Z,13.26
2023-04-22T05:51:10.012Z,13.46
2023-04-22T05:52:09.984Z,13.33
2023-04-22T05:53:09.976Z,13.33
2023-04-22T05:54:09.959Z,13.36
2023-04-22T05:55:09.947Z,13.38
2023-04-22T05:56:09.949Z,13.38
2023-04-22T05:57:09.933Z,13.26
2023-04-22T05:58:09.917Z,13.36
2023-04-22T05:59:09.918Z,13.26
2023-04-22T06:00:09.890Z,13.39
2023-04-22T06:01:09.884Z,13.32
2023-04-22T06:02:09.985Z,13.36
2023-04-22T06:03:09.985Z,13.29
2023-04-22T06:04:10.068Z,13.32
2023-04-22T06:05:10.022Z,13.30
2023-04-22T06:06:09.823Z,13.28
2023-04-22T06:07:09.841Z,13.32
2023-04-22T06:08:09.831Z,13.28
2023-04-22T06:09:09.795Z,13.30
2023-04-22T06:10:09.783Z,13.26
2023-04-22T06:11:09.773Z,13.26
2023-04-22T06:12:09.769Z,13.25
2023-04-22T06:13:09.758Z,13.30
2023-04-22T06:14:09.794Z,13.28
2023-04-22T06:15:09.729Z,13.26
2023-04-22T06:16:09.727Z,13.33
2023-04-22T06:17:09.745Z,13.29
2023-04-22T06:18:09.757Z,13.33
2023-04-22T06:19:10.393Z,13.41
2023-04-22T06:20:09.710Z,13.44
2023-04-22T06:21:09.696Z,13.48
2023-04-22T06:22:09.655Z,13.42
2023-04-22T06:23:09.651Z,13.42
2023-04-22T06:24:09.632Z,13.49
2023-04-22T06:25:09.651Z,13.51
2023-04-22T06:26:09.609Z,13.54
2023-04-22T06:27:09.622Z,13.45
2023-04-22T06:28:09.593Z,13.52
2023-04-22T06:29:09.606Z,13.51
2023-04-22T06:30:09.571Z,13.51
2023-04-22T06:31:09.627Z,13.49
2023-04-22T06:32:09.541Z,13.49
2023-04-22T06:33:09.570Z,13.52
2023-04-22T06:34:09.545Z,13.67
2023-04-22T06:35:09.519Z,13.59
2023-04-22T06:36:09.601Z,13.81
2023-04-22T06:37:09.487Z,14.02
2023-04-22T06:38:09.479Z,14.18
2023-04-22T06:39:09.484Z,14.32
2023-04-22T06:40:09.453Z,14.51
2023-04-22T06:41:09.443Z,14.69
2023-04-22T06:42:09.450Z,14.86
2023-04-22T06:43:09.446Z,14.83
2023-04-22T06:44:09.421Z,15.09
2023-04-22T06:45:09.408Z,15.13
2023-04-22T06:46:09.423Z,15.29
2023-04-22T06:47:09.386Z,15.49
2023-04-22T06:48:09.384Z,15.50
2023-04-22T06:49:09.359Z,15.64
2023-04-22T06:50:09.372Z,15.54
2023-04-22T06:51:09.341Z,15.54
2023-04-22T06:52:09.334Z,15.56
2023-04-22T06:53:09.309Z,15.47
2023-04-22T06:54:09.301Z,15.76
2023-04-22T06:55:09.310Z,15.65
2023-04-22T06:56:09.291Z,15.82
2023-04-22T06:57:09.263Z,16.00
2023-04-22T06:58:09.255Z,16.02
2023-04-22T06:59:09.242Z,16.02
2023-04-22T07:00:09.254Z,16.24
2023-04-22T07:01:09.253Z,16.24
2023-04-22T07:02:09.365Z,16.48
2023-04-22T07:03:09.348Z,16.58
2023-04-22T07:04:09.304Z,16.67
2023-04-22T07:05:09.195Z,16.86
2023-04-22T07:06:09.189Z,16.86
2023-04-22T07:07:09.247Z,17.11
2023-04-22T07:08:09.317Z,17.19
2023-04-22T07:09:09.172Z,17.28
2023-04-22T07:10:09.695Z,17.43
2023-04-22T07:11:09.213Z,17.56
2023-04-22T07:12:09.208Z,17.54
2023-04-22T07:13:09.114Z,17.77
2023-04-22T07:14:09.201Z,17.75
2023-04-22T07:15:09.081Z,17.72
2023-04-22T07:16:09.193Z,17.77
2023-04-22T07:17:09.042Z,17.74
2023-04-22T07:18:09.037Z,17.74
2023-04-22T07:19:09.033Z,17.79
2023-04-22T07:20:09.035Z,17.72
2023-04-22T07:21:09.002Z,17.77
2023-04-22T07:22:09.023Z,17.74
2023-04-22T07:23:08.986Z,17.75
2023-04-22T07:24:08.970Z,17.59
2023-04-22T07:25:09.695Z,17.43
2023-04-22T07:26:08.960Z,17.51
2023-04-22T07:27:08.946Z,17.52
2023-04-22T07:28:08.943Z,17.58
2023-04-22T07:29:08.909Z,17.66
2023-04-22T07:30:08.928Z,17.81
2023-04-22T07:31:08.895Z,17.78
2023-04-22T07:32:08.943Z,17.90
2023-04-22T07:33:08.867Z,17.68
2023-04-22T07:34:08.859Z,17.56
2023-04-22T07:35:08.854Z,17.59
2023-04-22T07:36:08.849Z,17.64
2023-04-22T07:37:08.846Z,17.78
2023-04-22T07:38:09.831Z,17.72
2023-04-22T07:39:09.704Z,17.75
2023-04-22T07:40:08.837Z,17.86
2023-04-22T07:41:09.731Z,17.93
2023-04-22T07:42:09.688Z,17.99
2023-04-22T07:43:08.763Z,18.00
2023-04-22T07:44:08.750Z,18.03
2023-04-22T07:45:08.766Z,18.21
2023-04-22T07:46:08.793Z,18.25
2023-04-22T07:47:08.749Z,18.41
2023-04-22T07:48:08.714Z,18.37
2023-04-22T07:49:08.710Z,18.33
2023-04-22T07:50:08.678Z,18.41
2023-04-22T07:51:08.680Z,18.54
2023-04-22T07:52:08.656Z,18.55
2023-04-22T07:53:08.643Z,18.72
2023-04-22T07:54:08.723Z,18.80
2023-04-22T07:55:08.624Z,18.84
2023-04-22T07:56:08.666Z,18.98
2023-04-22T07:57:08.599Z,18.92
2023-04-22T07:58:08.597Z,18.85
2023-04-22T07:59:08.583Z,18.65
2023-04-22T08:00:08.582Z,18.87
2023-04-22T08:01:08.589Z,19.07
2023-04-22T08:02:08.758Z,19.00
2023-04-22T08:03:08.828Z,19.13
2023-04-22T08:04:09.506Z,19.13
2023-04-22T08:05:08.608Z,19.29
2023-04-22T08:06:08.510Z,19.36
2023-04-22T08:07:26.905Z,19.31
2023-04-22T08:08:09.514Z,19.46
2023-04-22T08:09:08.471Z,19.54
2023-04-22T08:10:08.467Z,19.68
2023-04-22T08:11:08.483Z,19.74
2023-04-22T08:12:08.457Z,19.68
2023-04-22T08:13:08.426Z,19.77
2023-04-22T08:14:08.448Z,19.77
2023-04-22T08:15:08.422Z,19.84
2023-04-22T08:16:08.485Z,19.81
2023-04-22T08:17:08.414Z,19.91
2023-04-22T08:18:08.471Z,19.86
2023-04-22T08:19:08.393Z,19.83
2023-04-22T08:20:08.400Z,19.86
2023-04-22T08:21:08.348Z,19.74
2023-04-22T08:22:08.337Z,19.76
2023-04-22T08:23:08.344Z,19.76
2023-04-22T08:24:08.322Z,19.73
2023-04-22T08:25:08.336Z,19.77
2023-04-22T08:26:08.308Z,19.74
2023-04-22T08:27:08.288Z,19.80
2023-04-22T08:28:08.282Z,19.78
2023-04-22T08:29:08.285Z,19.88
2023-04-22T08:30:08.287Z,19.91
2023-04-22T08:31:08.269Z,19.95
2023-04-22T08:32:08.260Z,19.88
2023-04-22T08:33:08.224Z,19.94
2023-04-22T08:34:08.230Z,19.98
2023-04-22T08:35:08.199Z,19.91
2023-04-22T08:36:08.215Z,19.96
2023-04-22T08:37:08.223Z,19.98
2023-04-22T08:38:08.177Z,20.06
2023-04-22T08:39:08.156Z,20.06
2023-04-22T08:40:08.146Z,20.23
2023-04-22T08:41:08.147Z,20.17
2023-04-22T08:42:08.141Z,19.96
2023-04-22T08:43:08.148Z,19.99
2023-04-22T08:44:08.094Z,20.13
2023-04-22T08:45:08.087Z,20.10
2023-04-22T08:46:08.191Z,20.33
2023-04-22T08:47:08.218Z,20.28
2023-04-22T08:48:08.072Z,20.18
2023-04-22T08:49:08.064Z,19.99
2023-04-22T08:50:08.050Z,19.78
2023-04-22T08:51:08.020Z,19.88
2023-04-22T08:52:08.030Z,19.98
2023-04-22T08:53:07.996Z,19.88
2023-04-22T08:54:08.044Z,19.86
2023-04-22T08:55:08.008Z,19.88
2023-04-22T08:56:07.973Z,19.78
2023-04-22T08:57:07.958Z,19.87
2023-04-22T08:58:07.936Z,19.99
2023-04-22T08:59:07.933Z,20.08
2023-04-22T09:00:07.943Z,20.18
2023-04-22T09:01:07.940Z,20.18
2023-04-22T09:02:08.072Z,20.21
2023-04-22T09:03:07.998Z,20.01
2023-04-22T09:04:07.940Z,19.91
2023-04-22T09:05:07.863Z,19.92
2023-04-22T09:06:07.925Z,19.81
2023-04-22T09:07:07.844Z,19.73
2023-04-22T09:08:07.848Z,19.69
2023-04-22T09:09:07.823Z,19.63
2023-04-22T09:10:07.832Z,19.73
2023-04-22T09:11:07.795Z,19.74
2023-04-22T09:12:07.819Z,19.88
2023-04-22T09:13:07.804Z,20.10
2023-04-22T09:14:07.790Z,20.29
2023-04-22T09:15:07.826Z,20.33
2023-04-22T09:16:07.800Z,20.23
2023-04-22T09:17:07.771Z,20.52
2023-04-22T09:18:07.725Z,20.62
2023-04-22T09:19:07.713Z,20.72
2023-04-22T09:20:07.763Z,20.89
2023-04-22T09:21:07.693Z,20.94
2023-04-22T09:22:07.695Z,21.07
2023-04-22T09:23:07.701Z,21.04
2023-04-22T09:24:07.661Z,21.03
2023-04-22T09:25:07.675Z,21.12
2023-04-22T09:26:07.632Z,21.10
2023-04-22T09:27:07.643Z,21.19
2023-04-22T09:28:07.642Z,21.21
2023-04-22T09:29:07.610Z,21.09
2023-04-22T09:30:07.599Z,21.13
2023-04-22T09:31:07.596Z,20.95
2023-04-22T09:32:07.684Z,20.80
2023-04-22T09:33:07.634Z,20.74
2023-04-22T09:34:07.575Z,20.73
2023-04-22T09:35:15.078Z,20.94
2023-04-22T09:36:07.514Z,20.99
2023-04-22T09:37:07.507Z,21.31
2023-04-22T09:38:07.503Z,21.14
2023-04-22T09:39:07.549Z,20.98
2023-04-22T09:40:07.497Z,20.98
2023-04-22T09:41:07.480Z,20.80
2023-04-22T09:42:07.462Z,20.87
2023-04-22T09:43:07.465Z,20.64
2023-04-22T09:44:07.431Z,20.52
2023-04-22T09:45:07.419Z,20.55
2023-04-22T09:46:07.466Z,20.62
2023-04-22T09:47:07.397Z,20.76
2023-04-22T09:48:07.391Z,20.77
2023-04-22T09:49:07.400Z,20.64
2023-04-22T09:50:07.427Z,20.80
2023-04-22T09:51:07.349Z,20.91
2023-04-22T09:52:07.352Z,21.06
2023-04-22T09:53:07.337Z,21.07
2023-04-22T09:54:07.319Z,21.21
2023-04-22T09:55:07.312Z,21.25
2023-04-22T09:56:07.340Z,21.42
2023-04-22T09:57:08.456Z,21.46
2023-04-22T09:58:07.299Z,21.52
2023-04-22T09:59:07.272Z,21.52
2023-04-22T10:00:07.271Z,21.38
2023-04-22T10:01:07.267Z,21.34
2023-04-22T10:02:07.303Z,21.50
2023-04-22T10:03:08.954Z,21.65
2023-04-22T10:04:07.267Z,21.75
2023-04-22T10:05:07.206Z,21.72
2023-04-22T10:06:07.214Z,21.83
2023-04-22T10:07:07.199Z,21.98
2023-04-22T10:08:07.184Z,21.84
2023-04-22T10:09:09.382Z,21.62
2023-04-22T10:10:07.156Z,21.37
2023-04-22T10:11:07.170Z,21.17
2023-04-22T10:12:07.140Z,21.01
2023-04-22T10:13:07.140Z,20.91
2023-04-22T10:14:07.109Z,20.79
2023-04-22T10:15:07.126Z,20.70
2023-04-22T10:16:07.102Z,20.42
2023-04-22T10:17:07.152Z,20.35
2023-04-22T10:18:07.080Z,20.35
2023-04-22T10:19:07.055Z,20.28
2023-04-22T10:20:07.044Z,20.23
2023-04-22T10:21:07.046Z,20.29
2023-04-22T10:22:07.017Z,20.28
2023-04-22T10:23:07.005Z,20.51
2023-04-22T10:24:07.012Z,20.47
2023-04-22T10:25:06.980Z,20.52
2023-04-22T10:26:06.973Z,20.61
2023-04-22T10:27:06.956Z,20.72
2023-04-22T10:28:06.969Z,20.80
2023-04-22T10:29:06.960Z,20.79
2023-04-22T10:30:06.934Z,20.82
2023-04-22T10:31:06.953Z,20.74
2023-04-22T10:32:08.443Z,20.76
2023-04-22T10:33:06.890Z,20.70
2023-04-22T10:34:06.886Z,20.74
2023-04-22T10:35:06.899Z,20.74
2023-04-22T10:36:06.862Z,20.82
2023-04-22T10:37:06.849Z,20.87
2023-04-22T10:38:06.843Z,20.97
2023-04-22T10:39:06.867Z,21.07
2023-04-22T10:40:06.849Z,20.99
2023-04-22T10:41:06.810Z,21.04
2023-04-22T10:42:06.817Z,21.12
2023-04-22T10:43:06.791Z,20.92
2023-04-22T10:44:06.826Z,20.91
2023-04-22T10:45:06.761Z,20.88
2023-04-22T10:46:06.791Z,20.91
2023-04-22T10:47:06.752Z,21.04
2023-04-22T10:48:06.800Z,21.16
2023-04-22T10:49:06.919Z,21.27
2023-04-22T10:50:06.731Z,21.40
2023-04-22T10:51:06.698Z,21.46
2023-04-22T10:52:06.702Z,21.49
2023-04-22T10:53:06.684Z,21.47
2023-04-22T10:54:06.680Z,21.35
2023-04-22T10:55:06.652Z,21.31
2023-04-22T10:56:06.655Z,21.32
2023-04-22T10:57:06.721Z,21.28
2023-04-22T10:58:06.631Z,21.14
2023-04-22T10:59:06.620Z,21.10
2023-04-22T11:00:06.624Z,21.07
2023-04-22T11:01:06.602Z,21.16
2023-04-22T11:02:06.721Z,21.22
2023-04-22T11:03:06.644Z,21.24
2023-04-22T11:04:06.682Z,21.13
2023-04-22T11:05:06.553Z,21.13
2023-04-22T11:06:06.561Z,21.16
2023-04-22T11:07:06.536Z,21.06
2023-04-22T11:08:06.544Z,20.99
2023-04-22T11:09:06.534Z,21.07
2023-04-22T11:10:06.502Z,21.24
2023-04-22T11:11:06.626Z,21.24
2023-04-22T11:12:06.490Z,21.21
2023-04-22T11:13:06.469Z,21.31
2023-04-22T11:14:06.460Z,21.35
2023-04-22T11:15:06.450Z,21.46
2023-04-22T11:16:06.504Z,21.50
2023-04-22T11:17:06.433Z,21.64
2023-04-22T11:18:06.414Z,21.75
2023-04-22T11:19:06.424Z,21.83
2023-04-22T11:20:06.394Z,22.03
2023-04-22T11:21:06.413Z,22.22
2023-04-22T11:22:06.375Z,22.22
2023-04-22T11:23:06.388Z,22.18
2023-04-22T11:24:06.350Z,21.83
2023-04-22T11:25:06.347Z,21.82
2023-04-22T11:26:06.366Z,21.92
2023-04-22T11:27:06.332Z,21.84
2023-04-22T11:28:06.321Z,21.84
2023-04-22T11:29:06.327Z,21.77
2023-04-22T11:30:06.275Z,21.84
2023-04-22T11:31:06.319Z,21.83
2023-04-22T11:32:06.282Z,21.86
2023-04-22T11:33:06.285Z,21.88
2023-04-22T11:34:06.239Z,21.72
2023-04-22T11:35:06.256Z,21.68
2023-04-22T11:36:06.216Z,21.59
2023-04-22T11:37:06.205Z,21.52
2023-04-22T11:38:06.194Z,21.43
2023-04-22T11:39:06.195Z,21.38
2023-04-22T11:41:06.175Z,21.53
2023-04-22T11:42:06.171Z,21.52
2023-04-22T11:43:06.154Z,21.61
2023-04-22T11:44:06.125Z,21.54
2023-04-22T11:45:06.117Z,21.53
2023-04-22T11:46:06.128Z,21.58
2023-04-22T11:47:06.096Z,21.59
2023-04-22T11:48:06.137Z,21.61
2023-04-22T11:49:06.076Z,21.61
2023-04-22T11:50:06.053Z,21.68
2023-04-22T11:51:06.065Z,21.72
2023-04-22T11:52:06.041Z,21.74
2023-04-22T11:53:06.028Z,21.68
2023-04-22T11:54:06.022Z,21.69
2023-04-22T11:55:06.019Z,21.75
2023-04-22T11:56:06.041Z,21.68
2023-04-22T11:57:06.006Z,21.68
2023-04-22T11:58:05.967Z,21.64
2023-04-22T11:59:05.965Z,21.65
2023-04-22T12:00:05.961Z,21.64
2023-04-22T12:01:05.983Z,21.59
2023-04-22T12:02:05.987Z,21.58
2023-04-22T12:03:05.996Z,21.59
2023-04-22T12:04:06.058Z,21.61
2023-04-22T12:05:05.932Z,21.59
2023-04-22T12:06:05.900Z,21.61
2023-04-22T12:07:05.887Z,21.62
2023-04-22T12:08:05.873Z,21.50
2023-04-22T12:09:05.865Z,21.42
2023-04-22T12:10:05.846Z,21.47
2023-04-22T12:11:05.893Z,21.44
2023-04-22T12:12:05.844Z,21.52
2023-04-22T12:13:05.827Z,21.40
2023-04-22T12:14:05.821Z,21.49
2023-04-22T12:15:05.801Z,21.35
2023-04-22T12:16:05.787Z,21.29
2023-04-22T12:17:05.894Z,21.34
2023-04-22T12:18:05.757Z,21.35
2023-04-22T12:19:05.760Z,21.37
2023-04-22T12:20:05.770Z,21.42
2023-04-22T12:21:05.731Z,21.37
2023-04-22T12:22:05.702Z,21.37
2023-04-22T12:23:05.700Z,21.47
2023-04-22T12:24:05.689Z,21.47
2023-04-22T12:25:05.676Z,21.46
2023-04-22T12:26:05.709Z,21.58
2023-04-22T12:27:05.698Z,21.56
2023-04-22T12:28:05.641Z,21.58
2023-04-22T12:29:05.633Z,21.71
2023-04-22T12:30:05.619Z,21.72
2023-04-22T12:31:05.649Z,21.80
2023-04-22T12:32:05.614Z,21.79
2023-04-22T12:33:05.605Z,21.72
2023-04-22T12:34:05.630Z,21.84
2023-04-22T12:35:05.590Z,21.90
2023-04-22T12:36:05.590Z,21.92
2023-04-22T12:37:05.548Z,21.83
2023-04-22T12:38:05.549Z,21.82
2023-04-22T12:39:05.533Z,21.83
2023-04-22T12:40:05.512Z,21.71
2023-04-22T12:41:05.517Z,21.71
2023-04-22T12:42:05.516Z,21.77
2023-04-22T12:43:05.510Z,21.72
2023-04-22T12:44:05.480Z,21.58
2023-04-22T12:45:05.474Z,21.52
2023-04-22T12:46:05.512Z,21.43
2023-04-22T12:47:05.459Z,21.47
2023-04-22T12:48:05.428Z,21.31
2023-04-22T12:49:05.442Z,21.34
2023-04-22T12:50:05.469Z,21.22
2023-04-22T12:51:05.409Z,21.19
2023-04-22T12:52:05.420Z,21.12
2023-04-22T12:53:05.392Z,21.07